Time;durP1;ratioP1;P1;durP2;ratioP2;P2;SDS_P1;SDS_P2;PMS_P1;PMS_P2;Temp;Humidity;BMP_temperature;BMP_pressure;BME280_temperature;BME280_humidity;BME280_pressure;Samples;Min_cycle;Max_cycle;Signal;HPM_P1;HPM_P2
2021/06/14 00:01:40;;;;;;;11.23;7.90;;;;;;;16.44;100.00;99922.02;1723088;82;21049;-73
2021/06/14 00:04:06;;;;;;;9.93;7.77;;;;;;;16.41;100.00;99917.23;1730589;82;20911;-70
2021/06/14 00:06:33;;;;;;;11.87;8.30;;;;;;;16.45;100.00;99919.17;1727264;81;21156;-71
2021/06/14 00:09:01;;;;;;;11.97;7.97;;;;;;;16.43;100.00;99919.91;1727135;82;21295;-72
2021/06/14 00:11:29;;;;;;;11.43;8.77;;;;;;;16.50;100.00;99910.58;1727990;82;21049;-72
2021/06/14 00:13:57;;;;;;;11.23;8.63;;;;;;;16.48;100.00;99911.34;1735554;82;20939;-73
2021/06/14 00:16:24;;;;;;;13.00;8.43;;;;;;;16.49;100.00;99911.10;1733603;82;20903;-63
2021/06/14 00:18:50;;;;;;;10.57;8.70;;;;;;;16.51;100.00;99912.97;1736861;82;21307;-72
2021/06/14 00:21:17;;;;;;;11.73;9.57;;;;;;;16.50;100.00;99909.27;1736652;82;21334;-72
2021/06/14 00:23:44;;;;;;;18.60;9.53;;;;;;;16.49;100.00;99906.36;1736960;82;20955;-73
2021/06/14 00:26:13;;;;;;;11.80;8.23;;;;;;;16.50;100.00;99910.58;1731531;82;21041;-73
2021/06/14 00:28:40;;;;;;;11.17;9.13;;;;;;;16.47;100.00;99911.83;1734725;82;20949;-61
2021/06/14 00:31:09;;;;;;;15.40;11.40;;;;;;;16.50;100.00;99916.64;1737054;82;21130;-72
2021/06/14 00:33:37;;;;;;;12.97;11.67;;;;;;;16.46;100.00;99919.45;1733098;82;21037;-74
2021/06/14 00:36:05;;;;;;;14.43;11.97;;;;;;;16.42;100.00;99909.63;1736106;82;21035;-72
2021/06/14 00:38:32;;;;;;;13.77;11.13;;;;;;;16.36;100.00;99910.01;1732363;82;21045;-71
2021/06/14 00:40:58;;;;;;;13.37;11.03;;;;;;;16.32;100.00;99917.28;1736406;82;21041;-67
2021/06/14 00:43:25;;;;;;;12.30;9.73;;;;;;;16.28;100.00;99911.67;1731925;82;21158;-72
2021/06/14 00:45:52;;;;;;;12.27;9.77;;;;;;;16.23;100.00;99910.25;1737871;81;20954;-72
2021/06/14 00:48:19;;;;;;;10.77;9.43;;;;;;;16.36;100.00;99916.58;1733218;82;20927;-72
2021/06/14 00:50:52;;;;;;;12.53;9.57;;;;;;;16.39;100.00;99911.39;1732072;82;20975;-62
2021/06/14 00:53:26;;;;;;;11.20;9.73;;;;;;;16.45;100.00;99909.17;1733131;82;21115;-72
2021/06/14 00:55:52;;;;;;;15.17;11.93;;;;;;;16.32;100.00;99910.70;1730960;82;21814;-73
2021/06/14 00:58:19;;;;;;;12.23;10.90;;;;;;;16.27;100.00;99910.88;1700374;82;21504;-61
2021/06/14 01:00:48;;;;;;;13.60;10.40;;;;;;;16.16;100.00;99912.98;1733839;82;21015;-71
2021/06/14 01:03:15;;;;;;;13.77;10.50;;;;;;;16.11;100.00;99911.56;1737092;82;21109;-70
2021/06/14 01:05:45;;;;;;;13.73;12.23;;;;;;;16.05;100.00;99907.20;1734699;82;20910;-72
2021/06/14 01:08:12;;;;;;;13.85;11.73;;;;;;;16.00;100.00;99907.09;1734290;82;21817;-62
2021/06/14 01:10:43;;;;;;;12.53;10.03;;;;;;;16.02;100.00;99912.91;1731176;82;21302;-72
2021/06/14 01:13:18;;;;;;;14.03;10.97;;;;;;;16.17;100.00;99912.47;1734935;82;21003;-72
2021/06/14 01:15:59;;;;;;;18.93;12.73;;;;;;;16.06;100.00;99912.73;1732397;82;20967;-72
2021/06/14 01:18:34;;;;;;;14.53;10.40;;;;;;;16.14;100.00;99915.55;1696044;82;27158;-69
2021/06/14 01:21:12;;;;;;;13.03;10.70;;;;;;;16.08;100.00;99915.95;1683950;82;21161;-72
2021/06/14 01:23:53;;;;;;;13.10;11.40;;;;;;;16.10;100.00;99915.23;1733883;82;20980;-72
2021/06/14 01:26:21;;;;;;;13.78;10.63;;;;;;;16.10;100.00;99916.55;1731071;82;21156;-69
2021/06/14 01:28:55;;;;;;;12.30;9.83;;;;;;;16.15;100.00;99914.02;1732123;82;21537;-73
2021/06/14 01:31:25;;;;;;;10.10;8.60;;;;;;;16.17;100.00;99908.00;1727352;82;20958;-73
2021/06/14 01:33:52;;;;;;;13.13;10.03;;;;;;;16.17;100.00;99914.58;1732794;82;21150;-72
2021/06/14 01:36:24;;;;;;;11.97;9.63;;;;;;;16.33;100.00;99914.44;1706362;82;21129;-71
2021/06/14 01:38:50;;;;;;;12.33;9.67;;;;;;;16.27;100.00;99910.08;1733104;82;20990;-74
2021/06/14 01:41:18;;;;;;;13.60;8.93;;;;;;;16.40;100.00;99903.77;1736001;82;21088;-70
2021/06/14 01:43:45;;;;;;;12.27;9.57;;;;;;;16.39;100.00;99902.18;1731762;82;20978;-67
2021/06/14 01:46:17;;;;;;;11.77;9.67;;;;;;;16.38;100.00;99904.02;1733053;82;21706;-62
2021/06/14 01:48:46;;;;;;;13.70;9.83;;;;;;;16.39;100.00;99912.70;1704638;82;21251;-70
2021/06/14 01:51:18;;;;;;;13.00;10.50;;;;;;;16.48;100.00;99916.09;1735074;82;20875;-70
2021/06/14 01:54:02;;;;;;;13.60;10.10;;;;;;;16.52;100.00;99908.53;1734048;82;21043;-69
2021/06/14 01:56:13;;;;;;;13.57;9.80;;;;;;;16.76;100.00;99907.48;1699879;82;20979;-61
2021/06/14 01:58:40;;;;;;;14.17;10.73;;;;;;;16.78;100.00;99912.52;1731740;82;21136;-70
2021/06/14 02:01:11;;;;;;;15.10;11.50;;;;;;;17.08;100.00;99911.00;1682267;82;21003;-70
2021/06/14 02:03:40;;;;;;;12.37;11.07;;;;;;;17.49;100.00;99917.03;1728858;82;21054;-71
2021/06/14 02:06:27;;;;;;;13.17;11.33;;;;;;;17.94;100.00;99921.52;1739001;82;20879;-70
2021/06/14 02:08:54;;;;;;;17.10;12.13;;;;;;;18.30;100.00;99908.89;1738796;82;20893;-70
2021/06/14 02:11:22;;;;;;;14.43;12.43;;;;;;;18.55;100.00;99910.53;1716119;82;21151;-69
2021/06/14 02:13:50;;;;;;;13.53;10.90;;;;;;;18.96;100.00;99910.55;1715664;82;21125;-61
2021/06/14 02:16:17;;;;;;;12.47;9.80;;;;;;;19.38;100.00;99911.80;1734499;82;20979;-70
2021/06/14 02:18:45;;;;;;;11.90;10.30;;;;;;;20.07;100.00;99917.17;1739756;82;21045;-70
2021/06/14 02:21:13;;;;;;;14.00;10.37;;;;;;;20.77;100.00;99911.80;1736405;81;20938;-63
2021/06/14 02:23:40;;;;;;;12.00;10.20;;;;;;;21.28;100.00;99914.59;1739122;82;21148;-69
2021/06/14 02:26:07;;;;;;;11.93;10.27;;;;;;;21.58;100.00;99913.34;1739122;82;20962;-62
2021/06/14 02:28:35;;;;;;;13.93;12.43;;;;;;;21.90;100.00;99908.87;1714701;82;32769;-71
2021/06/14 02:31:04;;;;;;;13.80;12.30;;;;;;;22.13;100.00;99899.55;1740135;82;20914;-71
2021/06/14 02:33:31;;;;;;;13.43;11.97;;;;;;;22.06;100.00;99899.28;1739714;82;21025;-71
2021/06/14 02:36:09;;;;;;;12.43;11.17;;;;;;;21.79;100.00;99896.13;1737012;82;21061;-71
2021/06/14 02:38:36;;;;;;;13.07;10.77;;;;;;;21.47;100.00;99898.48;1736227;82;20997;-72
2021/06/14 02:41:04;;;;;;;13.60;12.13;;;;;;;21.20;100.00;99899.21;1740474;82;20974;-62
2021/06/14 02:43:33;;;;;;;14.03;12.33;;;;;;;21.02;100.00;99900.48;1738978;82;22397;-67
2021/06/14 02:46:00;;;;;;;13.27;11.80;;;;;;;20.91;100.00;99901.00;1742172;82;20915;-68
2021/06/14 02:48:30;;;;;;;13.97;11.47;;;;;;;21.04;100.00;99895.73;1735158;82;21244;-71
2021/06/14 02:50:57;;;;;;;10.30;9.00;;;;;;;21.48;100.00;99895.30;1737537;82;20902;-73
2021/06/14 02:53:24;;;;;;;10.27;8.53;;;;;;;22.21;100.00;99894.52;1739057;82;21143;-71
2021/06/14 02:55:59;;;;;;;8.63;7.50;;;;;;;22.93;100.00;99888.45;1739538;82;20973;-63
2021/06/14 02:58:31;;;;;;;10.63;7.43;;;;;;;23.53;100.00;99893.67;1709172;82;20997;-72
2021/06/14 03:00:58;;;;;;;10.87;8.00;;;;;;;24.36;100.00;99895.34;1712579;80;21642;-72
2021/06/14 03:03:25;;;;;;;8.57;7.43;;;;;;;25.37;100.00;99887.68;1662494;85;21095;-71
2021/06/14 03:05:52;;;;;;;9.93;8.50;;;;;;;26.41;100.00;99888.58;1662909;85;21565;-63
2021/06/14 03:08:18;;;;;;;8.48;6.70;;;;;;;27.39;100.00;99884.13;1665865;85;20985;-73
2021/06/14 03:10:46;;;;;;;8.85;7.47;;;;;;;28.17;100.00;99892.38;1642066;85;21027;-71
2021/06/14 03:13:14;;;;;;;9.28;7.60;;;;;;;29.03;100.00;99890.52;1665405;85;21130;-71
2021/06/14 03:15:41;;;;;;;9.10;7.50;;;;;;;29.79;100.00;99896.14;1656940;85;21132;-71
2021/06/14 03:18:08;;;;;;;9.63;7.72;;;;;;;30.15;100.00;99894.11;1643426;85;21088;-62
2021/06/14 03:20:35;;;;;;;9.23;7.28;;;;;;;30.75;100.00;99897.88;1660056;85;21050;-63
2021/06/14 03:23:02;;;;;;;9.95;7.58;;;;;;;31.50;100.00;99897.94;1663663;85;21099;-71
2021/06/14 03:25:31;;;;;;;8.68;7.33;;;;;;;31.75;100.00;99899.37;1665851;85;21253;-70
2021/06/14 03:27:58;;;;;;;9.63;7.67;;;;;;;32.35;100.00;99898.42;1666297;85;20929;-69
2021/06/14 03:30:26;;;;;;;8.75;6.75;;;;;;;32.47;100.00;99898.47;1659315;85;20960;-69
2021/06/14 03:32:53;;;;;;;7.85;6.87;;;;;;;32.77;100.00;99903.57;1665162;85;22379;-67
2021/06/14 03:35:21;;;;;;;8.43;6.67;;;;;;;33.31;100.00;99905.93;1667424;85;21193;-66
2021/06/14 03:37:49;;;;;;;9.35;6.45;;;;;;;33.81;100.00;99904.56;1664982;85;21200;-67
2021/06/14 03:40:17;;;;;;;6.62;5.47;;;;;;;33.80;100.00;99905.70;1668479;85;20933;-68
2021/06/14 03:42:44;;;;;;;6.97;5.35;;;;;;;34.07;100.00;99903.51;1664018;85;22241;-69
2021/06/14 03:45:12;;;;;;;6.72;5.87;;;;;;;34.30;99.81;99905.59;1669400;85;21139;-72
2021/06/14 03:47:39;;;;;;;6.50;5.33;;;;;;;34.77;96.97;99909.55;1660654;85;21051;-71
2021/06/14 03:50:07;;;;;;;7.97;5.72;;;;;;;35.08;93.60;99908.70;1658596;85;21173;-69
2021/06/14 03:52:36;;;;;;;8.28;5.42;;;;;;;35.48;89.64;99915.64;1667802;85;21086;-66
2021/06/14 03:55:04;;;;;;;7.37;5.30;;;;;;;35.72;86.90;99916.47;1666049;85;21162;-68
2021/06/14 03:57:31;;;;;;;9.18;6.30;;;;;;;35.70;87.75;99915.48;1664527;85;21001;-67
2021/06/14 03:59:58;;;;;;;7.85;6.33;;;;;;;35.90;86.24;99911.36;1668058;85;21014;-68
2021/06/14 04:02:24;;;;;;;8.45;6.12;;;;;;;36.11;82.38;99914.45;1665245;85;21530;-66
2021/06/14 04:04:55;;;;;;;6.72;5.95;;;;;;;36.25;82.23;99908.45;1658221;85;21996;-68
2021/06/14 04:07:36;;;;;;;14.40;7.45;;;;;;;36.56;79.35;99911.47;1654863;85;21059;-69
2021/06/14 04:10:05;;;;;;;9.20;6.62;;;;;;;36.84;75.83;99917.06;1662531;85;20993;-62
2021/06/14 04:12:33;;;;;;;8.68;6.08;;;;;;;37.01;74.29;99915.97;1663105;85;21140;-67
2021/06/14 04:15:00;;;;;;;6.08;4.90;;;;;;;37.14;71.72;99919.79;1656062;85;21212;-70
2021/06/14 04:17:28;;;;;;;5.37;4.83;;;;;;;37.25;70.84;99916.61;1660061;85;21104;-70
2021/06/14 04:19:54;;;;;;;7.20;5.20;;;;;;;37.43;68.42;99922.25;1664994;85;21021;-62
2021/06/14 04:22:21;;;;;;;6.35;4.83;;;;;;;37.46;68.25;99925.01;1662295;85;21362;-69
2021/06/14 04:24:48;;;;;;;5.05;4.55;;;;;;;37.65;65.71;99919.17;1662785;85;20952;-68
2021/06/14 04:27:14;;;;;;;10.00;5.22;;;;;;;37.65;65.38;99919.95;1666473;85;21108;-68
2021/06/14 04:29:42;;;;;;;6.40;5.22;;;;;;;37.68;64.88;99926.59;1662938;85;21537;-68
2021/06/14 04:32:08;;;;;;;6.15;5.03;;;;;;;37.84;63.57;99932.55;1666379;85;21036;-62
2021/06/14 04:34:36;;;;;;;7.00;4.72;;;;;;;38.11;62.53;99924.25;1663642;85;21641;-68
2021/06/14 04:37:03;;;;;;;7.67;5.33;;;;;;;38.48;58.88;99926.09;1664657;85;21080;-67
2021/06/14 04:39:30;;;;;;;5.37;4.87;;;;;;;38.56;57.64;99932.55;1662259;85;22092;-69
2021/06/14 04:41:56;;;;;;;5.75;5.15;;;;;;;38.59;57.44;99936.47;1664918;85;21060;-66
2021/06/14 04:44:23;;;;;;;7.47;5.28;;;;;;;38.64;56.71;99933.37;1664009;85;21062;-62
2021/06/14 04:46:50;;;;;;;8.25;5.10;;;;;;;38.86;57.31;99931.56;1662938;85;21625;-69
2021/06/14 04:49:17;;;;;;;6.45;4.67;;;;;;;39.17;55.27;99934.20;1665925;85;21955;-69
2021/06/14 04:51:44;;;;;;;6.95;5.25;;;;;;;39.39;52.14;99935.86;1661399;85;21259;-69
2021/06/14 04:54:10;;;;;;;6.55;5.87;;;;;;;39.52;51.35;99934.16;1666652;85;21533;-69
2021/06/14 04:56:37;;;;;;;8.30;5.85;;;;;;;39.59;52.18;99936.31;1662585;85;21046;-69
2021/06/14 04:59:03;;;;;;;6.72;5.83;;;;;;;39.89;49.50;99946.89;1664686;85;20948;-67
2021/06/14 05:01:30;;;;;;;6.47;5.78;;;;;;;40.11;47.36;99941.41;1664382;85;21925;-71
2021/06/14 05:03:57;;;;;;;9.68;5.50;;;;;;;40.30;45.10;99938.29;1667485;85;21183;-71
2021/06/14 05:06:24;;;;;;;7.28;5.78;;;;;;;40.34;45.78;99941.79;1669691;85;21764;-70
2021/06/14 05:08:51;;;;;;;6.83;5.37;;;;;;;40.64;44.16;99941.95;1667194;85;20992;-70
2021/06/14 05:11:18;;;;;;;6.53;5.80;;;;;;;40.72;43.38;99938.02;1669014;85;20948;-70
2021/06/14 05:13:44;;;;;;;8.40;6.05;;;;;;;40.87;43.71;99946.17;1667448;85;21054;-73
2021/06/14 05:16:11;;;;;;;7.85;6.42;;;;;;;41.15;43.40;99949.41;1670329;85;21179;-71
2021/06/14 05:18:39;;;;;;;7.70;6.08;;;;;;;41.13;42.09;99951.16;1669548;85;21035;-70
2021/06/14 05:21:05;;;;;;;7.72;5.92;;;;;;;40.66;42.95;99951.91;1667310;85;20968;-63
2021/06/14 05:23:32;;;;;;;7.35;6.05;;;;;;;40.14;46.04;99952.94;1667194;85;21025;-71
2021/06/14 05:25:59;;;;;;;8.60;5.60;;;;;;;40.23;46.63;99958.00;1667288;85;20968;-70
2021/06/14 05:28:25;;;;;;;6.28;5.67;;;;;;;40.05;45.41;99953.91;1665342;85;21136;-70
2021/06/14 05:30:52;;;;;;;7.35;4.70;;;;;;;39.93;45.59;99952.91;1666953;85;21080;-71
2021/06/14 05:33:19;;;;;;;5.70;4.30;;;;;;;39.90;44.66;99955.86;1670603;85;20956;-62
2021/06/14 05:35:46;;;;;;;5.60;4.72;;;;;;;39.59;47.72;99957.33;1662524;85;21004;-70
2021/06/14 05:38:13;;;;;;;7.12;5.25;;;;;;;39.52;46.08;99954.61;1663375;85;20999;-66
2021/06/14 05:40:40;;;;;;;7.12;4.62;;;;;;;39.70;47.95;99959.52;1660988;85;21186;-69
2021/06/14 05:43:06;;;;;;;7.78;4.25;;;;;;;39.55;48.93;99953.81;1666834;85;20964;-68
2021/06/14 05:45:33;;;;;;;5.10;4.60;;;;;;;39.38;46.11;99956.13;1663057;85;21478;-66
2021/06/14 05:48:00;;;;;;;5.33;4.45;;;;;;;39.08;46.60;99955.61;1668803;85;21007;-67
2021/06/14 05:50:27;;;;;;;6.20;4.85;;;;;;;38.96;48.06;99959.45;1664109;85;21150;-61
2021/06/14 05:52:53;;;;;;;8.83;5.00;;;;;;;38.85;49.58;99965.44;1664584;85;21144;-71
2021/06/14 05:55:20;;;;;;;5.42;4.25;;;;;;;38.92;51.86;99962.16;1669933;85;21059;-68
2021/06/14 05:57:47;;;;;;;6.50;4.85;;;;;;;39.08;52.29;99966.52;1661608;85;21033;-68
2021/06/14 06:00:15;;;;;;;7.40;5.60;;;;;;;39.33;51.77;99959.23;1667432;85;21070;-61
2021/06/14 06:02:42;;;;;;;7.72;5.00;;;;;;;39.63;51.44;99962.23;1658802;85;21228;-68
2021/06/14 06:05:10;;;;;;;8.80;5.92;;;;;;;40.03;49.32;99965.79;1668400;85;21168;-69
2021/06/14 06:07:37;;;;;;;7.85;4.95;;;;;;;40.28;45.80;99958.98;1663339;85;21526;-68
2021/06/14 06:10:08;;;;;;;6.92;4.37;;;;;;;40.36;44.55;99954.48;1665990;85;21081;-69
2021/06/14 06:12:34;;;;;;;5.28;4.10;;;;;;;39.98;40.29;99964.83;1666127;85;21620;-68
2021/06/14 06:15:04;;;;;;;4.53;3.90;;;;;;;39.32;41.11;99960.38;1667469;85;21140;-69
2021/06/14 06:17:31;;;;;;;5.25;3.42;;;;;;;39.06;47.76;99962.02;1667079;85;21163;-70
2021/06/14 06:19:58;;;;;;;13.28;3.92;;;;;;;38.85;41.23;99966.22;1667938;85;21446;-63
2021/06/14 06:22:24;;;;;;;6.40;3.00;;;;;;;38.76;40.71;99957.59;1664083;85;21119;-65
2021/06/14 06:24:51;;;;;;;8.08;3.62;;;;;;;38.58;38.25;99956.70;1661838;85;21151;-68
2021/06/14 06:27:18;;;;;;;4.67;2.90;;;;;;;38.20;45.92;99956.02;1653093;85;21032;-68
2021/06/14 06:29:47;;;;;;;6.08;3.15;;;;;;;37.81;44.06;99963.81;1663220;85;21202;-69
2021/06/14 06:32:13;;;;;;;6.95;3.47;;;;;;;37.78;43.81;99961.86;1666784;85;21032;-63
2021/06/14 06:34:42;;;;;;;3.85;2.62;;;;;;;37.63;45.17;99963.66;1660008;85;21102;-69
2021/06/14 06:37:08;;;;;;;4.60;3.22;;;;;;;37.91;43.26;99960.44;1658473;85;21040;-68
2021/06/14 06:39:35;;;;;;;6.17;3.15;;;;;;;38.61;42.82;99968.98;1659584;85;21150;-69
2021/06/14 06:42:02;;;;;;;6.12;2.92;;;;;;;38.85;39.92;99966.80;1657205;85;21177;-62
2021/06/14 06:44:30;;;;;;;3.42;2.47;;;;;;;38.83;38.20;99978.09;1650578;85;21107;-66
2021/06/14 06:47:00;;;;;;;3.35;2.30;;;;;;;38.79;35.93;99972.38;1661526;85;21133;-66
2021/06/14 06:49:27;;;;;;;3.83;2.50;;;;;;;39.15;35.86;99965.95;1660316;85;21169;-70
2021/06/14 06:51:53;;;;;;;5.05;2.40;;;;;;;39.64;34.36;99965.92;1662085;85;21051;-68
2021/06/14 06:54:20;;;;;;;5.30;2.70;;;;;;;39.62;34.94;99971.56;1662913;85;21104;-62
2021/06/14 06:56:49;;;;;;;3.80;2.87;;;;;;;39.57;37.78;99966.50;1668203;85;21161;-70
2021/06/14 06:59:16;;;;;;;4.95;2.83;;;;;;;39.91;33.47;99971.64;1652952;85;26321;-68
2021/06/14 07:01:44;;;;;;;5.97;2.75;;;;;;;40.01;34.87;99976.33;1664577;85;21031;-69
2021/06/14 07:04:11;;;;;;;3.17;2.65;;;;;;;39.96;35.16;99976.11;1665911;85;21064;-62
2021/06/14 07:06:37;;;;;;;5.15;2.95;;;;;;;39.81;36.08;99983.51;1663763;85;21166;-70
2021/06/14 07:09:05;;;;;;;7.17;3.20;;;;;;;39.46;35.96;99979.33;1666486;85;21138;-69
2021/06/14 07:11:31;;;;;;;4.00;2.70;;;;;;;39.13;38.63;99983.85;1668028;85;20996;-69
2021/06/14 07:13:59;;;;;;;5.10;3.40;;;;;;;39.44;38.44;99983.02;1666610;85;21060;-64
2021/06/14 07:16:25;;;;;;;5.78;3.12;;;;;;;39.77;37.89;99986.81;1667718;85;21103;-69
2021/06/14 07:18:53;;;;;;;4.47;3.00;;;;;;;39.67;37.69;99988.94;1667473;85;22194;-71
2021/06/14 07:21:21;;;;;;;4.00;2.50;;;;;;;39.55;37.57;99987.91;1663033;85;21629;-70
2021/06/14 07:23:47;;;;;;;4.72;2.70;;;;;;;39.27;38.29;99991.34;1665465;85;21004;-69
2021/06/14 07:26:14;;;;;;;5.67;2.85;;;;;;;38.84;39.43;99998.72;1666294;85;21018;-68
2021/06/14 07:28:40;;;;;;;6.12;3.33;;;;;;;38.40;42.88;99996.84;1666592;85;21067;-67
2021/06/14 07:31:07;;;;;;;4.85;3.17;;;;;;;37.95;46.63;100001.48;1663558;85;21142;-67
2021/06/14 07:33:35;;;;;;;7.12;2.90;;;;;;;37.79;50.03;99998.20;1666692;85;20999;-69
2021/06/14 07:36:03;;;;;;;4.12;2.67;;;;;;;37.98;50.30;99994.52;1666323;85;20945;-62
2021/06/14 07:38:30;;;;;;;4.42;3.02;;;;;;;38.35;46.85;99990.98;1663257;85;21065;-69
2021/06/14 07:40:58;;;;;;;4.03;2.33;;;;;;;38.76;47.10;99996.31;1665119;85;21028;-65
2021/06/14 07:43:24;;;;;;;5.45;2.85;;;;;;;38.73;51.93;99999.20;1665568;85;21170;-68
2021/06/14 07:45:51;;;;;;;5.72;3.05;;;;;;;38.32;45.84;100002.59;1664408;85;21087;-71
2021/06/14 07:48:18;;;;;;;4.03;2.90;;;;;;;37.79;51.33;100000.92;1662545;85;20961;-71
2021/06/14 07:50:46;;;;;;;4.37;2.52;;;;;;;37.56;51.91;100001.65;1665284;85;21092;-61
2021/06/14 07:53:13;;;;;;;5.60;2.98;;;;;;;37.53;54.01;99995.59;1665699;85;21119;-69
2021/06/14 07:55:40;;;;;;;3.92;2.60;;;;;;;37.73;59.48;99993.69;1663902;85;21158;-72
2021/06/14 07:58:07;;;;;;;4.92;2.62;;;;;;;38.02;55.01;99994.55;1665773;85;21008;-61
2021/06/14 08:00:34;;;;;;;4.03;2.65;;;;;;;38.11;58.41;99997.18;1660577;85;21563;-70
2021/06/14 08:03:03;;;;;;;4.28;2.70;;;;;;;38.25;53.31;100001.16;1668923;85;21048;-70
2021/06/14 08:05:30;;;;;;;4.05;2.47;;;;;;;38.08;53.50;100003.37;1664002;85;21517;-72
2021/06/14 08:07:56;;;;;;;4.05;2.80;;;;;;;38.33;55.27;100002.78;1665582;85;21080;-64
2021/06/14 08:10:23;;;;;;;3.50;2.60;;;;;;;38.56;50.06;99996.55;1660589;85;20944;-69
2021/06/14 08:12:50;;;;;;;4.12;2.90;;;;;;;38.88;49.20;99996.02;1661194;85;20973;-70
2021/06/14 08:15:26;;;;;;;4.40;3.12;;;;;;;39.21;47.15;99993.64;1662906;85;22106;-70
2021/06/14 08:18:00;;;;;;;4.00;2.33;;;;;;;39.38;47.80;99996.25;1668951;85;21078;-73
2021/06/14 08:20:31;;;;;;;4.55;2.70;;;;;;;39.06;47.59;100004.27;1669031;85;21912;-70
2021/06/14 08:25:37;;;;;;;4.28;2.80;;;;;;;38.15;52.67;100003.98;1662804;85;21000;-70
2021/06/14 08:28:04;;;;;;;4.75;3.27;;;;;;;37.36;53.87;100004.52;1665121;85;21035;-71
2021/06/14 08:30:31;;;;;;;5.72;3.30;;;;;;;36.44;64.89;100003.35;1663847;85;21012;-69
2021/06/14 08:32:57;;;;;;;4.45;2.95;;;;;;;35.46;71.30;100003.88;1663300;85;22656;-72
2021/06/14 08:35:27;;;;;;;9.00;3.52;;;;;;;34.98;75.58;100004.60;1661371;85;21569;-69
2021/06/14 08:37:54;;;;;;;5.05;3.55;;;;;;;34.61;79.50;100007.06;1655800;85;21087;-72
2021/06/14 08:40:25;;;;;;;3.72;3.33;;;;;;;34.34;83.02;100013.33;1660202;85;20988;-72
2021/06/14 08:42:52;;;;;;;4.45;3.40;;;;;;;33.86;88.43;100015.94;1657661;85;21076;-69
2021/06/14 08:45:19;;;;;;;4.97;3.77;;;;;;;33.36;89.59;100018.58;1666794;85;21108;-69
2021/06/14 08:47:47;;;;;;;4.05;3.30;;;;;;;32.97;93.01;100020.13;1669780;85;21074;-68
2021/06/14 08:50:17;;;;;;;9.63;3.85;;;;;;;33.01;99.69;100016.19;1672233;85;21151;-72
2021/06/14 08:52:44;;;;;;;5.50;3.33;;;;;;;33.38;100.00;100025.01;1665879;85;21885;-71
2021/06/14 08:55:13;;;;;;;6.45;4.40;;;;;;;34.03;98.38;100020.29;1669485;85;21088;-64
2021/06/14 08:57:40;;;;;;;4.62;3.95;;;;;;;34.81;93.18;100022.01;1670704;85;21140;-67
2021/06/14 09:00:09;;;;;;;6.55;4.05;;;;;;;35.41;81.35;100019.08;1674060;85;20972;-69
2021/06/14 09:02:35;;;;;;;4.12;3.10;;;;;;;35.91;72.35;100016.77;1671178;85;21550;-72
2021/06/14 09:05:02;;;;;;;3.87;2.60;;;;;;;36.17;72.37;100023.46;1667014;85;21633;-67
2021/06/14 09:07:29;;;;;;;4.95;2.98;;;;;;;36.38;68.16;100020.34;1665997;85;21047;-72
2021/06/14 09:09:55;;;;;;;4.05;2.95;;;;;;;36.81;70.28;100010.93;1668443;85;21171;-70
2021/06/14 09:12:22;;;;;;;6.55;3.33;;;;;;;37.40;67.45;100013.48;1668381;85;20944;-61
2021/06/14 09:14:49;;;;;;;3.90;3.00;;;;;;;38.04;65.73;100019.47;1659695;85;21095;-71
2021/06/14 09:17:17;;;;;;;3.87;3.25;;;;;;;38.47;55.85;100019.84;1664388;85;20953;-67
2021/06/14 09:19:53;;;;;;;4.92;3.35;;;;;;;38.41;50.51;100015.31;1668160;85;21186;-69
2021/06/14 09:22:25;;;;;;;5.20;2.80;;;;;;;38.17;48.68;100015.30;1667055;85;21150;-60
2021/06/14 09:24:58;;;;;;;3.45;2.83;;;;;;;37.87;52.57;100014.80;1660480;85;21051;-61
2021/06/14 09:27:45;;;;;;;4.83;3.20;;;;;;;37.94;52.83;100014.89;1658729;85;21015;-67
2021/06/14 09:30:27;;;;;;;5.58;3.33;;;;;;;38.19;54.70;100022.52;1660417;85;21090;-69
2021/06/14 09:32:58;;;;;;;3.50;2.80;;;;;;;38.36;54.25;100028.70;1664612;85;21663;-66
2021/06/14 09:35:35;;;;;;;3.70;2.80;;;;;;;38.20;44.58;100028.16;1669343;85;21149;-70
2021/06/14 09:38:09;;;;;;;4.37;2.92;;;;;;;37.93;48.38;100026.95;1668874;85;21072;-69
2021/06/14 09:40:45;;;;;;;4.50;2.90;;;;;;;38.07;52.08;100023.55;1634531;87;21055;-68
2021/06/14 09:43:33;;;;;;;3.42;2.75;;;;;;;38.19;42.44;100026.61;1602856;89;21000;-69
2021/06/14 09:46:04;;;;;;;4.80;3.15;;;;;;;38.08;43.51;100021.06;1606406;89;20957;-61
2021/06/14 09:48:35;;;;;;;4.65;2.95;;;;;;;38.03;44.54;100021.97;1609932;88;22047;-68
2021/06/14 09:51:01;;;;;;;5.78;3.12;;;;;;;38.02;39.85;100018.47;1610976;88;21132;-69
2021/06/14 09:53:35;;;;;;;4.55;3.42;;;;;;;37.72;43.96;100019.88;1631126;87;21034;-61
2021/06/14 09:55:56;;;;;;;5.50;3.55;;;;;;;37.56;44.96;100019.33;1609032;88;21188;-60
2021/06/14 09:58:26;;;;;;;4.10;3.17;;;;;;;37.37;48.59;100018.30;1663868;85;21004;-67
2021/06/14 10:00:58;;;;;;;5.10;3.58;;;;;;;37.45;50.32;100024.64;1660795;85;21854;-69
2021/06/14 10:03:27;;;;;;;4.40;3.35;;;;;;;37.23;48.68;100014.04;1656326;85;21008;-69
2021/06/14 10:05:56;;;;;;;4.53;3.17;;;;;;;36.63;58.16;100013.95;1639700;87;22185;-61
2021/06/14 10:08:29;;;;;;;4.62;3.42;;;;;;;36.18;57.60;100021.77;1641523;87;22396;-67
2021/06/14 10:11:17;;;;;;;6.00;3.20;;;;;;;35.95;53.53;100015.48;1638405;87;21648;-68
2021/06/14 10:13:47;;;;;;;3.87;3.12;;;;;;;35.82;56.40;100012.94;1639092;87;21191;-71
2021/06/14 10:16:15;;;;;;;;;;;;;;;35.82;57.19;100015.66;1642448;87;21657;-69
2021/06/14 10:18:47;;;;;;;5.08;3.02;;;;;;;35.92;52.95;100007.52;1643681;87;20207;-68
2021/06/14 10:21:26;;;;;;;4.10;3.47;;;;;;;35.89;55.60;100004.73;1619156;87;21060;-69
2021/06/14 10:23:55;;;;;;;4.33;3.13;;;;;;;35.62;59.32;100009.27;1645188;87;21000;-68
2021/06/14 10:26:23;;;;;;;6.65;3.42;;;;;;;35.47;56.69;100014.38;1640281;87;21164;-61
2021/06/14 10:28:51;;;;;;;4.53;3.70;;;;;;;35.23;54.92;100003.80;1636646;86;21007;-68
2021/06/14 10:31:19;;;;;;;5.35;3.58;;;;;;;35.31;62.26;100002.83;1641204;87;21534;-62
2021/06/14 10:33:51;;;;;;;5.60;3.37;;;;;;;35.58;65.02;99995.06;1642115;87;21031;-68
2021/06/14 10:36:25;;;;;;;5.55;3.20;;;;;;;36.00;63.52;99998.38;1637459;87;20999;-68
2021/06/14 10:38:53;;;;;;;4.15;2.92;;;;;;;36.36;50.09;99994.89;1640607;87;21187;-68
2021/06/14 10:41:20;;;;;;;4.37;3.45;;;;;;;36.45;52.91;99995.45;1637054;87;21114;-63
2021/06/14 10:43:48;;;;;;;4.42;3.67;;;;;;;36.63;52.56;99993.00;1643129;87;20951;-69
2021/06/14 10:46:18;;;;;;;4.95;3.10;;;;;;;36.66;52.60;100001.78;1643351;87;21082;-69
2021/06/14 10:48:46;;;;;;;7.55;3.90;;;;;;;36.64;48.58;99996.53;1637420;87;21655;-69
2021/06/14 10:51:15;;;;;;;4.40;3.20;;;;;;;36.64;52.11;100000.61;1639794;87;22100;-68
2021/06/14 10:53:42;;;;;;;4.22;3.08;;;;;;;36.72;48.77;99994.13;1608181;88;21791;-66
2021/06/14 10:56:09;;;;;;;4.03;3.27;;;;;;;36.93;48.06;99993.05;1582782;90;21087;-68
2021/06/14 10:58:35;;;;;;;5.55;3.40;;;;;;;37.13;46.57;99988.31;1579596;90;21629;-61
2021/06/14 11:01:08;;;;;;;4.75;3.58;;;;;;;37.25;46.56;99985.93;1582564;90;21172;-69
2021/06/14 11:03:44;;;;;;;5.28;3.75;;;;;;;37.15;40.60;99985.21;1595437;87;21194;-70
2021/06/14 11:06:23;;;;;;;5.15;3.60;;;;;;;36.89;41.50;99974.55;1632882;87;21003;-71
2021/06/14 11:09:12;;;;;;;5.05;3.22;;;;;;;36.90;43.84;99975.34;1628662;87;22230;-72
2021/06/14 11:11:56;;;;;;;4.70;3.47;;;;;;;36.98;43.17;99983.27;1629671;87;21046;-69
2021/06/14 11:14:42;;;;;;;4.78;3.72;;;;;;;36.99;41.57;99984.83;1630263;87;21874;-62
2021/06/14 11:17:35;;;;;;;5.28;3.37;;;;;;;37.03;42.36;99984.88;1634717;87;21170;-71
2021/06/14 11:20:08;;;;;;;4.45;3.50;;;;;;;37.17;41.69;99981.56;1634037;87;20920;-69
2021/06/14 11:22:47;;;;;;;6.47;3.98;;;;;;;37.41;43.53;99987.89;1630132;87;21010;-72
2021/06/14 11:25:33;;;;;;;5.12;3.55;;;;;;;37.49;42.96;99988.17;1632875;87;21477;-64
2021/06/14 11:28:03;;;;;;;5.45;4.12;;;;;;;37.26;42.49;99984.77;1670332;85;20956;-73
2021/06/14 11:30:43;;;;;;;5.55;3.80;;;;;;;37.12;41.79;99984.01;1664942;85;21083;-71
2021/06/14 11:33:10;;;;;;;7.45;3.90;;;;;;;37.00;43.92;99978.23;1664541;85;21032;-69
2021/06/14 11:35:36;;;;;;;6.75;4.42;;;;;;;36.84;46.63;99980.32;1664401;85;21110;-72
2021/06/14 11:38:04;;;;;;;6.28;3.55;;;;;;;36.72;49.40;99974.53;1660936;85;22176;-70